createdAt,value
2023-05-04T00:01:48.468Z,4.2
2023-05-04T00:03:51.772Z,4.3
2023-05-04T00:05:57.952Z,3.8
2023-05-04T00:08:01.069Z,4.3
2023-05-04T00:10:04.410Z,2.4
2023-05-04T00:12:07.376Z,4.8
2023-05-04T00:14:10.509Z,3.5
2023-05-04T00:16:13.660Z,2.7
2023-05-04T00:18:16.798Z,3.9
2023-05-04T00:20:23.120Z,4.6
2023-05-04T00:22:26.252Z,4.4
2023-05-04T00:24:29.421Z,4.2
2023-05-04T00:26:32.572Z,3.2
2023-05-04T00:28:35.690Z,3.3
2023-05-04T00:30:38.605Z,2.9
2023-05-04T00:36:51.292Z,3.1
2023-05-04T00:38:54.427Z,2.6
2023-05-04T00:40:57.534Z,3.9
2023-05-04T00:43:00.694Z,3.7
2023-05-04T00:45:03.823Z,4.6
2023-05-04T00:47:07.044Z,4.1
2023-05-04T00:49:13.299Z,3.9
2023-05-04T00:51:16.448Z,3.1
2023-05-04T01:03:59.412Z,3.3
2023-05-04T01:06:02.493Z,4.1
2023-05-04T01:14:15.344Z,2.8
2023-05-04T01:16:21.424Z,4.2
2023-05-04T01:18:24.561Z,4.1
2023-05-04T01:20:27.686Z,3.2
2023-05-04T01:26:37.087Z,2.3
2023-05-04T01:28:40.203Z,3.4
2023-05-04T01:30:46.568Z,4.2
2023-05-04T01:32:49.770Z,2.7
2023-05-04T01:34:52.827Z,4.1
2023-05-04T01:36:55.970Z,3.6
2023-05-04T01:38:59.086Z,2.7
2023-05-04T01:47:14.879Z,4
2023-05-04T01:49:17.939Z,3.4
2023-05-04T01:50:21.105Z,3.9
2023-05-04T01:52:24.299Z,3.1
2023-05-04T01:56:30.487Z,2.7
2023-05-04T01:58:36.833Z,4.8
2023-05-04T02:00:39.963Z,2.9
2023-05-04T02:02:43.196Z,2.1
2023-05-04T02:04:46.221Z,2.8
2023-05-04T02:06:49.346Z,4.9
2023-05-04T02:08:52.481Z,2.7
2023-05-04T02:10:55.592Z,2.8
2023-05-04T02:13:01.956Z,3.5
2023-05-04T02:15:05.066Z,5.4
2023-05-04T02:19:11.289Z,3
2023-05-04T02:23:17.539Z,3.6
2023-05-04T02:25:20.702Z,3.2
2023-05-04T02:27:26.980Z,3.3
2023-05-04T02:33:36.327Z,4.7
2023-05-04T02:39:45.684Z,4.2
2023-05-04T02:41:52.042Z,3.8
2023-05-04T02:43:55.165Z,3.5
2023-05-04T02:47:01.481Z,3.5
2023-05-04T02:49:04.558Z,4.8
2023-05-04T02:51:07.678Z,3.9
2023-05-04T02:53:10.781Z,4.5
2023-05-04T02:55:17.125Z,4.9
2023-05-04T03:05:32.722Z,5.2
2023-05-04T03:15:51.510Z,4.7
2023-05-04T03:17:54.665Z,3.7
2023-05-04T03:30:16.539Z,6.1
2023-05-04T03:32:19.638Z,5.4
2023-05-04T03:34:22.802Z,3.7
2023-05-04T03:36:25.861Z,4.3
2023-05-04T03:38:32.203Z,4
2023-05-04T03:40:35.317Z,6.1
2023-05-04T03:43:41.610Z,5.9
2023-05-04T03:45:44.731Z,5.3
2023-05-04T03:47:47.863Z,5.4
2023-05-04T03:49:50.996Z,4.9
2023-05-04T03:51:57.295Z,4.6
2023-05-04T03:54:00.417Z,4.5
2023-05-04T03:56:03.533Z,5.1
2023-05-04T03:58:06.657Z,5.3
2023-05-04T04:04:16.021Z,4
2023-05-04T04:06:22.325Z,5.2
2023-05-04T04:18:41.011Z,4.6
2023-05-04T04:20:47.331Z,5.8
2023-05-04T04:22:50.425Z,6.4
2023-05-04T04:26:56.650Z,7.5
2023-05-04T04:28:59.765Z,6.9
2023-05-04T04:33:06.066Z,8.2
2023-05-04T04:35:12.292Z,8
2023-05-04T04:37:15.410Z,7
2023-05-04T04:39:18.549Z,6.6
2023-05-04T04:43:49.506Z,5.9
2023-05-04T04:45:52.589Z,6.3
2023-05-04T04:47:58.828Z,8.8
2023-05-04T04:50:02.121Z,8.5
2023-05-04T05:00:19.085Z,7.6
2023-05-04T05:02:25.436Z,8.7
2023-05-04T05:04:28.528Z,7.5
2023-05-04T05:06:31.582Z,5.9
2023-05-04T05:08:34.719Z,6.6
2023-05-04T05:10:37.834Z,8.3
2023-05-04T05:12:40.992Z,7.9
2023-05-04T05:14:44.075Z,7.3
2023-05-04T05:18:53.539Z,7.8
2023-05-04T05:20:56.669Z,6
2023-05-04T05:22:59.795Z,5.6
2023-05-04T05:25:02.909Z,7
2023-05-04T05:27:06.001Z,5.8
2023-05-04T05:29:09.158Z,5.4
2023-05-04T05:31:15.494Z,5.2
2023-05-04T05:33:18.664Z,6.6
2023-05-04T05:35:21.729Z,7
2023-05-04T05:36:24.889Z,6.9
2023-05-04T05:38:28.025Z,7.3
2023-05-04T05:40:31.153Z,6.7
2023-05-04T05:42:34.274Z,8.1
2023-05-04T05:44:40.609Z,7.2
2023-05-04T05:46:43.845Z,7
2023-05-04T05:50:50.024Z,6.7
2023-05-04T05:56:59.411Z,6.3
2023-05-04T05:59:05.775Z,6.8
2023-05-04T06:01:08.902Z,6.2
2023-05-04T06:03:12.130Z,6.4
2023-05-04T06:05:15.183Z,7
2023-05-04T06:07:18.349Z,4.3
2023-05-04T06:09:21.480Z,6.1
2023-05-04T06:13:30.975Z,6.5
2023-05-04T06:15:34.141Z,5.4
2023-05-04T06:17:37.317Z,5.6
2023-05-04T06:23:46.758Z,5.7
2023-05-04T06:25:49.898Z,5.1
2023-05-04T06:27:56.244Z,6.5
2023-05-04T06:32:02.583Z,6.2
2023-05-04T06:33:05.813Z,6
2023-05-04T06:35:09.053Z,5.6
2023-05-04T06:39:15.234Z,5.4
2023-05-04T06:41:21.575Z,4.8
2023-05-04T06:43:24.734Z,5.4
2023-05-04T06:45:27.968Z,6.9
2023-05-04T06:47:31.088Z,7.1
2023-05-04T06:51:37.423Z,4.9
2023-05-04T06:53:40.563Z,4.1
2023-05-04T06:55:46.970Z,4.1
2023-05-04T06:57:50.121Z,5.3
2023-05-04T06:59:53.277Z,6.4
2023-05-04T07:03:59.651Z,5.3
2023-05-04T07:06:02.788Z,5.7
2023-05-04T07:08:05.964Z,3.7
2023-05-04T07:10:12.347Z,5.1
2023-05-04T07:12:15.508Z,4.5
2023-05-04T07:14:18.698Z,3.1
2023-05-04T07:16:21.756Z,5
2023-05-04T07:18:24.830Z,3.5
2023-05-04T07:20:28.049Z,4.8
2023-05-04T07:22:31.058Z,4.2
2023-05-04T07:26:40.327Z,3.4
2023-05-04T07:31:49.613Z,2.2
2023-05-04T07:33:52.619Z,3.3
2023-05-04T07:38:01.864Z,4
2023-05-04T07:44:11.108Z,3.2
2023-05-04T07:46:14.191Z,3.6
2023-05-04T07:50:20.308Z,4.5
2023-05-04T07:52:26.492Z,3.5
2023-05-04T07:56:32.637Z,3.5
2023-05-04T08:00:38.796Z,3.7
2023-05-04T08:04:44.930Z,3.5
2023-05-04T08:11:07.969Z,3.1
2023-05-04T08:13:00.289Z,4.3
2023-05-04T08:15:03.648Z,3.4
2023-05-04T08:17:06.400Z,3.8
2023-05-04T08:23:18.632Z,2.8
2023-05-04T08:25:21.704Z,3.3
2023-05-04T08:27:51.036Z,3.1
2023-05-04T08:29:54.078Z,3.9
2023-05-04T08:34:03.276Z,3.7
2023-05-04T08:36:06.322Z,1.9
2023-05-04T08:38:09.347Z,2.9
2023-05-04T08:40:12.404Z,3.3
2023-05-04T08:42:15.412Z,3.4
2023-05-04T08:44:18.439Z,2.3
2023-05-04T08:46:21.531Z,2.6
2023-05-04T08:48:27.624Z,1.6
2023-05-04T08:50:30.632Z,2.6
2023-05-04T08:52:33.658Z,4.3
2023-05-04T08:54:36.686Z,3.9
2023-05-04T08:56:39.683Z,3.2
2023-05-04T08:58:42.719Z,3.3
2023-05-04T09:00:45.735Z,3.1
2023-05-04T09:02:51.926Z,3.1
2023-05-04T09:04:54.905Z,2.9
2023-05-04T09:06:57.902Z,3.2
2023-05-04T09:09:00.927Z,2.4
2023-05-04T09:13:07.004Z,3.6
2023-05-04T09:17:16.131Z,2.3
2023-05-04T09:19:19.159Z,2
2023-05-04T09:21:22.167Z,2.4
2023-05-04T09:22:26.502Z,3
2023-05-04T09:24:28.254Z,3
2023-05-04T09:26:31.276Z,3
2023-05-04T09:28:34.277Z,2.7
2023-05-04T09:32:43.454Z,3.1
2023-05-04T09:34:46.434Z,2.6
2023-05-04T10:05:37.736Z,4.6
2023-05-04T10:11:46.639Z,1.8
2023-05-04T10:15:55.830Z,2.8
2023-05-04T10:17:58.738Z,3
2023-05-04T10:19:01.772Z,3.3
2023-05-04T10:29:21.386Z,2.8
2023-05-04T10:31:22.731Z,3
2023-05-04T10:33:25.670Z,3.1
2023-05-04T10:35:28.621Z,3.1
2023-05-04T10:39:34.569Z,2.3
2023-05-04T10:41:40.684Z,2.5
2023-05-04T10:58:09.475Z,2
2023-05-04T11:06:23.954Z,3.1
2023-05-04T11:10:30.165Z,2.5
2023-05-04T11:12:33.228Z,2.2
2023-05-04T11:15:39.161Z,2.9
2023-05-04T11:17:42.175Z,2.8
2023-05-04T11:19:45.125Z,1.8
2023-05-04T11:21:48.100Z,3.4
2023-05-04T11:23:54.189Z,3.3
2023-05-04T11:28:00.162Z,2
2023-05-04T11:30:03.068Z,2.5
2023-05-04T11:34:08.934Z,2.8
2023-05-04T11:36:11.882Z,2.6
2023-05-04T11:38:17.948Z,2.4
2023-05-04T11:40:20.836Z,3.1
2023-05-04T11:42:23.814Z,2.5
2023-05-04T11:44:26.639Z,3.3
2023-05-04T11:48:32.429Z,1.8
2023-05-04T11:52:41.343Z,3.8
2023-05-04T11:54:44.198Z,1.9
2023-05-04T11:56:47.080Z,2
2023-05-04T11:58:49.954Z,3.1
2023-05-04T12:00:54.248Z,2.5
2023-05-04T12:04:58.555Z,2
2023-05-04T12:13:31.470Z,2.9
2023-05-04T12:15:34.302Z,2.7
2023-05-04T12:17:37.131Z,2.2
2023-05-04T12:19:43.115Z,1.8
2023-05-04T12:21:45.915Z,2.3
2023-05-04T12:23:48.765Z,1.5
2023-05-04T12:25:58.154Z,1.5
2023-05-04T12:27:54.419Z,2.2
2023-05-04T12:29:57.196Z,2.8
2023-05-04T12:40:27.883Z,3.8
2023-05-04T12:42:17.187Z,1.9
2023-05-04T12:44:19.958Z,2.9
2023-05-04T12:46:22.928Z,2.8
2023-05-04T12:48:28.703Z,2.6
2023-05-04T12:50:31.469Z,2
2023-05-04T12:54:37.063Z,2.4
2023-05-04T12:56:39.862Z,3.4
2023-05-04T12:58:42.637Z,2
2023-05-04T13:00:46.209Z,2.5
2023-05-04T13:07:59.942Z,3.1
2023-05-04T13:16:14.327Z,2.3
2023-05-04T13:20:19.804Z,2.7
2023-05-04T13:22:22.577Z,2.3
2023-05-04T13:24:25.348Z,3
2023-05-04T13:26:27.921Z,3.1
2023-05-04T13:28:30.764Z,2.4
2023-05-04T13:30:36.476Z,4
2023-05-04T13:32:39.212Z,2.8
2023-05-04T13:34:41.975Z,2.8
2023-05-04T13:36:44.738Z,3.1
2023-05-04T13:38:47.521Z,2.6
2023-05-04T13:44:59.042Z,4.3
2023-05-04T13:49:04.592Z,3
2023-05-04T13:59:21.524Z,2.1
2023-05-04T14:01:24.498Z,3.6
2023-05-04T14:03:27.092Z,3.8
2023-05-04T14:04:29.948Z,3.1
2023-05-04T14:08:35.312Z,2.8
2023-05-04T14:14:46.353Z,3.5
2023-05-04T14:16:48.983Z,2.8
2023-05-04T14:18:51.573Z,3.7
2023-05-04T14:20:54.196Z,4.3
2023-05-04T14:22:56.898Z,4.4
2023-05-04T14:24:59.664Z,3.9
2023-05-04T14:27:05.475Z,4.9
2023-05-04T14:29:08.144Z,5.7
2023-05-04T14:31:10.878Z,4
2023-05-04T14:33:13.646Z,3.9
2023-05-04T14:35:16.247Z,4
2023-05-04T14:39:21.726Z,2.8
2023-05-04T14:41:27.607Z,3.6
2023-05-04T14:55:50.107Z,4.2
2023-05-04T15:00:58.650Z,5.9
2023-05-04T15:03:01.473Z,5.9
2023-05-04T15:05:04.213Z,6.6
2023-05-04T15:07:07.021Z,5.6
2023-05-04T15:09:12.960Z,3.4
2023-05-04T15:11:16.698Z,4.6
2023-05-04T15:13:18.538Z,4.1
2023-05-04T15:15:21.360Z,5.8
2023-05-04T15:17:24.193Z,4.9
2023-05-04T15:19:26.972Z,3.3
2023-05-04T15:21:29.782Z,4.6
2023-05-04T15:23:35.736Z,4.6
2023-05-04T15:25:38.552Z,6.5
2023-05-04T15:27:41.368Z,4.7
2023-05-04T15:29:44.191Z,5
2023-05-04T15:31:47.093Z,4.7
2023-05-04T15:33:49.850Z,5.9
2023-05-04T15:35:52.700Z,4.4
2023-05-04T15:40:02.732Z,4.5
2023-05-04T15:42:04.383Z,4.3
2023-05-04T15:44:07.228Z,6.5
2023-05-04T15:46:10.039Z,6.8
2023-05-04T15:48:12.915Z,5
2023-05-04T15:50:15.738Z,4.7
2023-05-04T15:54:24.593Z,5.6
2023-05-04T15:58:56.501Z,6.4
2023-05-04T16:00:59.380Z,5.5
2023-05-04T16:03:02.391Z,5.2
2023-05-04T16:05:08.238Z,6.2
2023-05-04T16:07:11.096Z,5.8
2023-05-04T16:09:13.955Z,5.6
2023-05-04T16:11:16.834Z,5.8
2023-05-04T16:13:19.779Z,5.4
2023-05-04T16:15:22.567Z,5
2023-05-04T16:17:25.476Z,4.8
2023-05-04T16:19:31.463Z,5.5
2023-05-04T16:25:40.104Z,7.5
2023-05-04T16:27:43.328Z,6.4
2023-05-04T16:29:45.880Z,4.1
2023-05-04T16:31:48.769Z,6.1
2023-05-04T16:35:57.750Z,5.1
2023-05-04T16:38:00.633Z,5.5
2023-05-04T16:40:03.604Z,4.3
2023-05-04T16:42:06.481Z,4.8
2023-05-04T16:44:09.421Z,4.2
2023-05-04T16:46:12.392Z,4.7
2023-05-04T16:50:22.883Z,4.3
2023-05-04T16:52:25.803Z,5
2023-05-04T16:55:31.788Z,3.6
2023-05-04T16:57:34.715Z,3.6
2023-05-04T17:01:43.791Z,4
2023-05-04T17:03:46.819Z,5.6
2023-05-04T17:09:55.576Z,5.4
2023-05-04T17:11:58.572Z,3.4
2023-05-04T17:16:07.617Z,2.8
2023-05-04T17:18:10.537Z,4.4
2023-05-04T17:20:13.532Z,1.7
2023-05-04T17:22:16.494Z,2.9
2023-05-04T17:24:19.437Z,3.8
2023-05-04T17:26:22.447Z,2.8
2023-05-04T17:28:25.395Z,3.9
2023-05-04T17:30:31.514Z,2.7
2023-05-04T17:36:40.438Z,3
2023-05-04T17:38:43.415Z,3.2
2023-05-04T17:42:49.413Z,2.4
2023-05-04T17:44:55.497Z,3.4
2023-05-04T17:46:58.506Z,2.7
2023-05-04T17:49:01.516Z,2.8
2023-05-04T17:50:04.750Z,2.2
2023-05-04T17:52:07.512Z,2.1
2023-05-04T17:56:13.508Z,2.4
2023-05-04T17:58:19.638Z,1.3
2023-05-04T18:00:22.666Z,2.7
2023-05-04T18:02:25.662Z,3.4
2023-05-04T18:10:37.634Z,2.5
2023-05-04T18:12:43.786Z,3.3
2023-05-04T18:16:49.761Z,2.3
2023-05-04T18:20:55.780Z,1.9
2023-05-04T18:25:01.831Z,2.7
2023-05-04T18:29:18.431Z,4.9
2023-05-04T18:31:13.992Z,3
2023-05-04T18:33:16.959Z,2.3
2023-05-04T18:37:22.987Z,2.9
2023-05-04T18:39:26.042Z,3.3
2023-05-04T18:41:32.151Z,4
2023-05-04T18:43:35.162Z,4.8
2023-05-04T18:45:38.227Z,1.9
2023-05-04T18:46:41.259Z,5.3
2023-05-04T18:52:50.295Z,1.4
2023-05-04T18:54:56.430Z,3.6
2023-05-04T18:56:59.454Z,2
2023-05-04T19:01:05.546Z,2.4
2023-05-04T19:03:08.583Z,5.6
2023-05-04T19:05:13.794Z,3.8
2023-05-04T19:07:14.561Z,3.8
2023-05-04T19:09:20.795Z,3.7
2023-05-04T19:11:23.721Z,2.7
2023-05-04T19:13:26.740Z,3.6
2023-05-04T19:15:29.805Z,3.6
2023-05-04T19:17:32.851Z,3.2
2023-05-04T19:19:35.861Z,4.5
2023-05-04T19:21:38.906Z,5.6
2023-05-04T19:23:45.030Z,5.8
2023-05-04T19:25:48.026Z,3.9
2023-05-04T19:31:58.270Z,2.4
2023-05-04T19:34:00.145Z,5.7
2023-05-04T19:38:09.317Z,2
2023-05-04T19:40:12.332Z,3.7
2023-05-04T19:42:15.369Z,4
2023-05-04T19:44:44.662Z,6.6
2023-05-04T19:46:47.718Z,2.7
2023-05-04T19:48:50.736Z,7.7
2023-05-04T19:52:59.901Z,7.1
2023-05-04T19:55:02.898Z,5.8
2023-05-04T19:57:05.934Z,5.8
2023-05-04T20:01:12.003Z,6.2
2023-05-04T20:03:15.039Z,10
2023-05-04T20:05:21.138Z,5.6
2023-05-04T20:07:24.153Z,4.9
2023-05-04T20:09:27.198Z,3.7
2023-05-04T20:11:30.236Z,4.1
2023-05-04T20:13:33.249Z,5.8
2023-05-04T20:15:36.285Z,7.2
2023-05-04T20:23:51.515Z,5.3
2023-05-04T20:25:54.580Z,4.1
2023-05-04T20:30:00.637Z,6.5
2023-05-04T20:32:03.677Z,4.9
2023-05-04T20:34:09.812Z,4.4
2023-05-04T20:36:12.818Z,2.5
2023-05-04T20:38:15.896Z,2.6
2023-05-04T20:39:18.934Z,2.9
2023-05-04T20:43:25.020Z,4.5
2023-05-04T20:45:28.029Z,4.7
2023-05-04T20:47:34.234Z,4
2023-05-04T20:49:37.234Z,4.2
2023-05-04T20:51:40.249Z,4.3
2023-05-04T20:53:43.341Z,6.2
2023-05-04T20:55:46.337Z,6.5
2023-05-04T20:57:49.438Z,5.6
2023-05-04T21:35:56.871Z,6.2
2023-05-04T21:44:12.263Z,8.2
2023-05-04T21:48:18.424Z,15.4
2023-05-04T21:50:21.483Z,16.1
2023-05-04T21:54:27.611Z,12.9
2023-05-04T21:56:30.682Z,15.3
2023-05-04T21:58:36.874Z,12.5
2023-05-04T22:00:39.991Z,19.4
2023-05-04T22:02:43.040Z,14.1
2023-05-04T22:04:46.091Z,9.1
2023-05-04T22:06:49.150Z,5.7
2023-05-04T22:08:52.241Z,7.4
2023-05-04T22:10:55.280Z,6.6
2023-05-04T22:13:01.478Z,7.4
2023-05-04T22:15:04.541Z,7.3
2023-05-04T22:17:08.389Z,5.9
2023-05-04T22:19:11.409Z,5.8
2023-05-04T22:21:14.519Z,5.6
2023-05-04T22:23:17.568Z,7.5
2023-05-04T22:25:20.615Z,5.7
2023-05-04T22:27:26.796Z,6.5
2023-05-04T22:29:29.881Z,8.2
2023-05-04T22:31:32.960Z,5.6
2023-05-04T22:32:36.037Z,5.2
2023-05-04T22:36:42.154Z,5
2023-05-04T22:38:45.234Z,5.7
2023-05-04T22:40:51.441Z,7.3
2023-05-04T22:42:56.065Z,6.2
2023-05-04T22:44:59.097Z,6.3
2023-05-04T22:47:02.146Z,5.3
2023-05-04T22:49:05.212Z,4.7
2023-05-04T22:51:08.293Z,4.9
2023-05-04T22:53:11.334Z,6.6
2023-05-04T23:03:29.884Z,8
2023-05-04T23:05:32.869Z,7.4
2023-05-04T23:09:42.139Z,8.2
2023-05-04T23:15:51.374Z,8.1
2023-05-04T23:19:57.521Z,5.6
2023-05-04T23:22:00.566Z,7.8
2023-05-04T23:24:06.746Z,5.5
2023-05-04T23:26:09.831Z,6.5
2023-05-04T23:28:12.878Z,5.5
2023-05-04T23:30:42.377Z,4.7
2023-05-04T23:32:45.448Z,5.4
2023-05-04T23:36:54.708Z,4.1
2023-05-04T23:38:57.756Z,5.3
2023-05-04T23:41:00.815Z,6.7
2023-05-04T23:43:03.906Z,8
2023-05-04T23:45:06.975Z,5.7
2023-05-04T23:47:10.036Z,7
2023-05-04T23:49:13.139Z,4.5
2023-05-04T23:51:19.290Z,7.4
2023-05-04T23:53:22.357Z,7.5
2023-05-04T23:55:25.430Z,6.5
2023-05-04T23:57:28.496Z,5.5
2023-05-04T23:59:31.552Z,4.7
